sensor_id;sensor_type;location;lat;lon;timestamp;P1;durP1;ratioP1;P2;durP2;ratioP2
38725;SDS011;24474;48.906;8.808;2023-04-27T00:01:18;6.22;;;2.75;;
38725;SDS011;24474;48.906;8.808;2023-04-27T00:03:44;6.32;;;2.47;;
38725;SDS011;24474;48.906;8.808;2023-04-27T00:06:09;6.30;;;3.15;;
38725;SDS011;24474;48.906;8.808;2023-04-27T00:08:35;7.00;;;2.42;;
38725;SDS011;24474;48.906;8.808;2023-04-27T00:11:01;5.28;;;2.70;;
38725;SDS011;24474;48.906;8.808;2023-04-27T00:13:27;5.70;;;2.90;;
38725;SDS011;24474;48.906;8.808;2023-04-27T00:15:53;5.65;;;2.70;;
38725;SDS011;24474;48.906;8.808;2023-04-27T00:18:19;6.50;;;2.55;;
38725;SDS011;24474;48.906;8.808;2023-04-27T00:20:45;6.20;;;2.80;;
38725;SDS011;24474;48.906;8.808;2023-04-27T00:23:11;6.07;;;2.85;;
38725;SDS011;24474;48.906;8.808;2023-04-27T00:25:36;6.25;;;2.65;;
38725;SDS011;24474;48.906;8.808;2023-04-27T00:28:02;6.32;;;2.70;;
38725;SDS011;24474;48.906;8.808;2023-04-27T00:30:28;5.47;;;3.03;;
38725;SDS011;24474;48.906;8.808;2023-04-27T00:33:03;6.35;;;2.65;;
38725;SDS011;24474;48.906;8.808;2023-04-27T00:35:32;7.43;;;2.90;;
38725;SDS011;24474;48.906;8.808;2023-04-27T00:37:58;6.82;;;3.28;;
38725;SDS011;24474;48.906;8.808;2023-04-27T00:40:23;8.60;;;3.20;;
38725;SDS011;24474;48.906;8.808;2023-04-27T00:42:49;8.98;;;3.72;;
38725;SDS011;24474;48.906;8.808;2023-04-27T00:45:15;6.95;;;3.30;;
38725;SDS011;24474;48.906;8.808;2023-04-27T00:47:40;6.53;;;3.20;;
38725;SDS011;24474;48.906;8.808;2023-04-27T00:50:07;6.38;;;3.00;;
38725;SDS011;24474;48.906;8.808;2023-04-27T00:52:37;8.32;;;3.20;;
38725;SDS011;24474;48.906;8.808;2023-04-27T00:55:03;8.60;;;3.30;;
38725;SDS011;24474;48.906;8.808;2023-04-27T00:57:30;7.32;;;3.20;;
38725;SDS011;24474;48.906;8.808;2023-04-27T00:59:58;7.45;;;3.08;;
38725;SDS011;24474;48.906;8.808;2023-04-27T01:02:24;5.53;;;2.65;;
38725;SDS011;24474;48.906;8.808;2023-04-27T01:04:51;4.35;;;2.90;;
38725;SDS011;24474;48.906;8.808;2023-04-27T01:07:17;5.90;;;3.15;;
38725;SDS011;24474;48.906;8.808;2023-04-27T01:09:43;4.88;;;3.10;;
38725;SDS011;24474;48.906;8.808;2023-04-27T01:12:08;5.75;;;3.10;;
38725;SDS011;24474;48.906;8.808;2023-04-27T01:14:34;6.03;;;3.22;;
38725;SDS011;24474;48.906;8.808;2023-04-27T01:17:01;8.68;;;3.65;;
38725;SDS011;24474;48.906;8.808;2023-04-27T01:19:26;5.60;;;3.22;;
38725;SDS011;24474;48.906;8.808;2023-04-27T01:21:52;7.25;;;3.60;;
38725;SDS011;24474;48.906;8.808;2023-04-27T01:24:18;6.47;;;3.58;;
38725;SDS011;24474;48.906;8.808;2023-04-27T01:26:44;6.03;;;3.42;;
38725;SDS011;24474;48.906;8.808;2023-04-27T01:29:09;6.75;;;3.60;;
38725;SDS011;24474;48.906;8.808;2023-04-27T01:31:35;6.88;;;3.58;;
38725;SDS011;24474;48.906;8.808;2023-04-27T01:34:01;7.57;;;4.00;;
38725;SDS011;24474;48.906;8.808;2023-04-27T01:36:27;8.27;;;4.63;;
38725;SDS011;24474;48.906;8.808;2023-04-27T01:38:53;5.38;;;3.53;;
38725;SDS011;24474;48.906;8.808;2023-04-27T01:41:18;9.55;;;4.15;;
38725;SDS011;24474;48.906;8.808;2023-04-27T01:43:44;8.30;;;3.63;;
38725;SDS011;24474;48.906;8.808;2023-04-27T01:46:11;6.82;;;3.67;;
38725;SDS011;24474;48.906;8.808;2023-04-27T01:48:39;7.38;;;3.95;;
38725;SDS011;24474;48.906;8.808;2023-04-27T01:51:06;8.68;;;3.83;;
38725;SDS011;24474;48.906;8.808;2023-04-27T01:53:32;9.30;;;4.10;;
38725;SDS011;24474;48.906;8.808;2023-04-27T01:55:58;8.55;;;4.25;;
38725;SDS011;24474;48.906;8.808;2023-04-27T01:58:24;5.93;;;3.58;;
38725;SDS011;24474;48.906;8.808;2023-04-27T02:00:50;6.97;;;3.90;;
38725;SDS011;24474;48.906;8.808;2023-04-27T02:03:16;7.00;;;3.92;;
38725;SDS011;24474;48.906;8.808;2023-04-27T02:05:42;6.78;;;3.80;;
38725;SDS011;24474;48.906;8.808;2023-04-27T02:08:07;6.78;;;3.53;;
38725;SDS011;24474;48.906;8.808;2023-04-27T02:10:33;7.65;;;4.05;;
38725;SDS011;24474;48.906;8.808;2023-04-27T02:12:59;5.47;;;3.90;;
38725;SDS011;24474;48.906;8.808;2023-04-27T02:15:25;6.68;;;3.90;;
38725;SDS011;24474;48.906;8.808;2023-04-27T02:17:51;6.72;;;3.80;;
38725;SDS011;24474;48.906;8.808;2023-04-27T02:20:17;5.30;;;3.60;;
38725;SDS011;24474;48.906;8.808;2023-04-27T02:22:42;6.65;;;3.88;;
38725;SDS011;24474;48.906;8.808;2023-04-27T02:25:09;5.70;;;3.47;;
38725;SDS011;24474;48.906;8.808;2023-04-27T02:27:36;7.32;;;3.78;;
38725;SDS011;24474;48.906;8.808;2023-04-27T02:30:05;9.15;;;3.88;;
38725;SDS011;24474;48.906;8.808;2023-04-27T02:32:35;7.18;;;4.00;;
38725;SDS011;24474;48.906;8.808;2023-04-27T02:35:02;6.00;;;3.53;;
38725;SDS011;24474;48.906;8.808;2023-04-27T02:37:28;6.22;;;3.80;;
38725;SDS011;24474;48.906;8.808;2023-04-27T02:39:54;7.82;;;4.15;;
38725;SDS011;24474;48.906;8.808;2023-04-27T02:42:20;6.47;;;4.05;;
38725;SDS011;24474;48.906;8.808;2023-04-27T02:44:45;5.07;;;3.67;;
38725;SDS011;24474;48.906;8.808;2023-04-27T02:47:11;5.47;;;3.53;;
38725;SDS011;24474;48.906;8.808;2023-04-27T02:49:38;5.55;;;3.60;;
38725;SDS011;24474;48.906;8.808;2023-04-27T02:52:04;5.95;;;3.38;;
38725;SDS011;24474;48.906;8.808;2023-04-27T02:54:30;8.23;;;3.90;;
38725;SDS011;24474;48.906;8.808;2023-04-27T02:56:56;6.28;;;3.67;;
38725;SDS011;24474;48.906;8.808;2023-04-27T02:59:22;5.80;;;3.75;;
38725;SDS011;24474;48.906;8.808;2023-04-27T03:01:47;5.85;;;3.53;;
38725;SDS011;24474;48.906;8.808;2023-04-27T03:04:13;5.70;;;3.88;;
38725;SDS011;24474;48.906;8.808;2023-04-27T03:06:40;6.30;;;4.15;;
38725;SDS011;24474;48.906;8.808;2023-04-27T03:09:06;7.35;;;3.95;;
38725;SDS011;24474;48.906;8.808;2023-04-27T03:11:32;8.23;;;4.13;;
38725;SDS011;24474;48.906;8.808;2023-04-27T03:13:58;8.43;;;4.43;;
38725;SDS011;24474;48.906;8.808;2023-04-27T03:16:23;7.63;;;3.47;;
38725;SDS011;24474;48.906;8.808;2023-04-27T03:18:49;5.18;;;3.40;;
38725;SDS011;24474;48.906;8.808;2023-04-27T03:21:15;6.25;;;3.42;;
38725;SDS011;24474;48.906;8.808;2023-04-27T03:23:42;6.05;;;3.60;;
38725;SDS011;24474;48.906;8.808;2023-04-27T03:26:08;7.13;;;4.00;;
38725;SDS011;24474;48.906;8.808;2023-04-27T03:28:37;6.88;;;3.80;;
38725;SDS011;24474;48.906;8.808;2023-04-27T03:31:04;7.50;;;4.63;;
38725;SDS011;24474;48.906;8.808;2023-04-27T03:33:35;6.22;;;4.22;;
38725;SDS011;24474;48.906;8.808;2023-04-27T03:36:03;6.63;;;4.32;;
38725;SDS011;24474;48.906;8.808;2023-04-27T03:38:32;6.30;;;4.00;;
38725;SDS011;24474;48.906;8.808;2023-04-27T03:40:58;5.82;;;3.90;;
38725;SDS011;24474;48.906;8.808;2023-04-27T03:43:25;7.68;;;4.28;;
38725;SDS011;24474;48.906;8.808;2023-04-27T03:45:51;7.50;;;4.78;;
38725;SDS011;24474;48.906;8.808;2023-04-27T03:48:19;6.07;;;4.82;;
38725;SDS011;24474;48.906;8.808;2023-04-27T03:50:45;9.50;;;4.85;;
38725;SDS011;24474;48.906;8.808;2023-04-27T03:53:12;7.40;;;4.78;;
38725;SDS011;24474;48.906;8.808;2023-04-27T03:55:40;8.48;;;5.13;;
38725;SDS011;24474;48.906;8.808;2023-04-27T03:58:06;9.55;;;4.82;;
38725;SDS011;24474;48.906;8.808;2023-04-27T04:00:35;12.55;;;4.63;;
38725;SDS011;24474;48.906;8.808;2023-04-27T04:03:06;10.38;;;4.55;;
38725;SDS011;24474;48.906;8.808;2023-04-27T04:05:33;6.73;;;4.07;;
38725;SDS011;24474;48.906;8.808;2023-04-27T04:08:00;7.70;;;4.90;;
38725;SDS011;24474;48.906;8.808;2023-04-27T04:10:27;10.18;;;4.65;;
38725;SDS011;24474;48.906;8.808;2023-04-27T04:12:53;7.68;;;4.38;;
38725;SDS011;24474;48.906;8.808;2023-04-27T04:15:19;9.98;;;4.55;;
38725;SDS011;24474;48.906;8.808;2023-04-27T04:17:45;7.32;;;4.30;;
38725;SDS011;24474;48.906;8.808;2023-04-27T04:20:16;6.03;;;3.97;;
38725;SDS011;24474;48.906;8.808;2023-04-27T04:22:43;7.35;;;4.15;;
38725;SDS011;24474;48.906;8.808;2023-04-27T04:25:09;9.20;;;4.40;;
38725;SDS011;24474;48.906;8.808;2023-04-27T04:27:34;7.70;;;4.05;;
38725;SDS011;24474;48.906;8.808;2023-04-27T04:30:02;5.97;;;4.00;;
38725;SDS011;24474;48.906;8.808;2023-04-27T04:32:30;7.63;;;4.05;;
38725;SDS011;24474;48.906;8.808;2023-04-27T04:34:57;10.02;;;5.25;;
38725;SDS011;24474;48.906;8.808;2023-04-27T04:37:23;10.02;;;4.93;;
38725;SDS011;24474;48.906;8.808;2023-04-27T04:39:50;9.43;;;4.40;;
38725;SDS011;24474;48.906;8.808;2023-04-27T04:42:17;10.15;;;4.57;;
38725;SDS011;24474;48.906;8.808;2023-04-27T04:44:42;10.65;;;4.60;;
38725;SDS011;24474;48.906;8.808;2023-04-27T04:47:08;7.63;;;4.70;;
38725;SDS011;24474;48.906;8.808;2023-04-27T04:49:35;7.07;;;4.30;;
38725;SDS011;24474;48.906;8.808;2023-04-27T04:52:01;11.80;;;4.38;;
38725;SDS011;24474;48.906;8.808;2023-04-27T04:54:28;8.65;;;4.40;;
38725;SDS011;24474;48.906;8.808;2023-04-27T04:56:54;8.23;;;4.68;;
38725;SDS011;24474;48.906;8.808;2023-04-27T04:59:19;9.93;;;4.45;;
38725;SDS011;24474;48.906;8.808;2023-04-27T05:01:45;9.25;;;4.20;;
38725;SDS011;24474;48.906;8.808;2023-04-27T05:04:11;7.78;;;4.78;;
38725;SDS011;24474;48.906;8.808;2023-04-27T05:06:36;8.40;;;4.82;;
38725;SDS011;24474;48.906;8.808;2023-04-27T05:09:02;8.60;;;4.55;;
38725;SDS011;24474;48.906;8.808;2023-04-27T05:11:30;8.73;;;4.57;;
38725;SDS011;24474;48.906;8.808;2023-04-27T05:13:56;6.80;;;4.40;;
38725;SDS011;24474;48.906;8.808;2023-04-27T05:16:23;8.32;;;4.30;;
38725;SDS011;24474;48.906;8.808;2023-04-27T05:18:50;9.18;;;4.35;;
38725;SDS011;24474;48.906;8.808;2023-04-27T05:21:18;7.90;;;4.43;;
38725;SDS011;24474;48.906;8.808;2023-04-27T05:23:46;9.05;;;5.03;;
38725;SDS011;24474;48.906;8.808;2023-04-27T05:26:15;8.80;;;4.63;;
38725;SDS011;24474;48.906;8.808;2023-04-27T05:28:41;8.07;;;4.55;;
38725;SDS011;24474;48.906;8.808;2023-04-27T05:31:07;10.50;;;5.28;;
38725;SDS011;24474;48.906;8.808;2023-04-27T05:33:34;9.10;;;4.60;;
38725;SDS011;24474;48.906;8.808;2023-04-27T05:36:00;7.47;;;4.43;;
38725;SDS011;24474;48.906;8.808;2023-04-27T05:38:26;7.43;;;4.43;;
38725;SDS011;24474;48.906;8.808;2023-04-27T05:40:55;7.47;;;4.80;;
38725;SDS011;24474;48.906;8.808;2023-04-27T05:43:22;10.02;;;6.30;;
38725;SDS011;24474;48.906;8.808;2023-04-27T05:45:48;10.00;;;7.05;;
38725;SDS011;24474;48.906;8.808;2023-04-27T05:48:14;10.55;;;5.18;;
38725;SDS011;24474;48.906;8.808;2023-04-27T05:50:41;9.65;;;5.68;;
38725;SDS011;24474;48.906;8.808;2023-04-27T05:53:06;10.50;;;6.30;;
38725;SDS011;24474;48.906;8.808;2023-04-27T05:55:32;7.03;;;4.90;;
38725;SDS011;24474;48.906;8.808;2023-04-27T05:57:58;7.85;;;4.47;;
38725;SDS011;24474;48.906;8.808;2023-04-27T06:00:25;7.35;;;4.00;;
38725;SDS011;24474;48.906;8.808;2023-04-27T06:02:51;7.50;;;4.57;;
38725;SDS011;24474;48.906;8.808;2023-04-27T06:05:22;8.57;;;4.60;;
38725;SDS011;24474;48.906;8.808;2023-04-27T06:07:48;8.10;;;4.93;;
38725;SDS011;24474;48.906;8.808;2023-04-27T06:10:13;10.18;;;4.38;;
38725;SDS011;24474;48.906;8.808;2023-04-27T06:12:40;8.85;;;5.07;;
38725;SDS011;24474;48.906;8.808;2023-04-27T06:15:07;18.27;;;10.13;;
38725;SDS011;24474;48.906;8.808;2023-04-27T06:17:37;10.77;;;5.65;;
38725;SDS011;24474;48.906;8.808;2023-04-27T06:20:04;8.98;;;4.90;;
38725;SDS011;24474;48.906;8.808;2023-04-27T06:22:32;9.38;;;4.70;;
38725;SDS011;24474;48.906;8.808;2023-04-27T06:24:58;6.55;;;4.25;;
38725;SDS011;24474;48.906;8.808;2023-04-27T06:27:24;7.43;;;4.10;;
38725;SDS011;24474;48.906;8.808;2023-04-27T06:29:49;7.05;;;4.40;;
38725;SDS011;24474;48.906;8.808;2023-04-27T06:32:15;8.30;;;4.63;;
38725;SDS011;24474;48.906;8.808;2023-04-27T06:34:42;12.52;;;7.43;;
38725;SDS011;24474;48.906;8.808;2023-04-27T06:37:07;14.00;;;7.32;;
38725;SDS011;24474;48.906;8.808;2023-04-27T06:39:33;12.02;;;6.07;;
38725;SDS011;24474;48.906;8.808;2023-04-27T06:41:59;10.90;;;5.75;;
38725;SDS011;24474;48.906;8.808;2023-04-27T06:44:24;14.85;;;5.00;;
38725;SDS011;24474;48.906;8.808;2023-04-27T06:46:50;9.00;;;4.70;;
38725;SDS011;24474;48.906;8.808;2023-04-27T06:49:16;8.90;;;4.60;;
38725;SDS011;24474;48.906;8.808;2023-04-27T06:51:42;9.82;;;4.43;;
38725;SDS011;24474;48.906;8.808;2023-04-27T06:54:07;6.55;;;3.88;;
38725;SDS011;24474;48.906;8.808;2023-04-27T06:56:33;6.70;;;4.10;;
38725;SDS011;24474;48.906;8.808;2023-04-27T06:58:59;5.93;;;4.10;;
38725;SDS011;24474;48.906;8.808;2023-04-27T07:01:24;6.88;;;3.85;;
38725;SDS011;24474;48.906;8.808;2023-04-27T07:03:50;8.95;;;4.18;;
38725;SDS011;24474;48.906;8.808;2023-04-27T07:06:16;6.70;;;3.90;;
38725;SDS011;24474;48.906;8.808;2023-04-27T07:08:41;7.43;;;3.30;;
38725;SDS011;24474;48.906;8.808;2023-04-27T07:11:07;6.30;;;3.40;;
38725;SDS011;24474;48.906;8.808;2023-04-27T07:13:33;99.53;;;7.63;;
38725;SDS011;24474;48.906;8.808;2023-04-27T07:15:58;8.48;;;3.70;;
38725;SDS011;24474;48.906;8.808;2023-04-27T07:18:25;7.05;;;3.50;;
38725;SDS011;24474;48.906;8.808;2023-04-27T07:20:52;7.63;;;3.80;;
38725;SDS011;24474;48.906;8.808;2023-04-27T07:23:22;9.30;;;3.28;;
38725;SDS011;24474;48.906;8.808;2023-04-27T07:25:48;4.97;;;2.63;;
38725;SDS011;24474;48.906;8.808;2023-04-27T07:28:14;4.53;;;2.40;;
38725;SDS011;24474;48.906;8.808;2023-04-27T07:30:40;5.13;;;2.58;;
38725;SDS011;24474;48.906;8.808;2023-04-27T07:33:06;6.05;;;2.65;;
38725;SDS011;24474;48.906;8.808;2023-04-27T07:35:34;5.55;;;2.72;;
38725;SDS011;24474;48.906;8.808;2023-04-27T07:38:00;7.07;;;2.58;;
38725;SDS011;24474;48.906;8.808;2023-04-27T07:40:27;4.78;;;2.60;;
38725;SDS011;24474;48.906;8.808;2023-04-27T07:42:53;4.45;;;2.40;;
38725;SDS011;24474;48.906;8.808;2023-04-27T07:45:19;5.75;;;2.53;;
38725;SDS011;24474;48.906;8.808;2023-04-27T07:47:45;6.38;;;2.42;;
38725;SDS011;24474;48.906;8.808;2023-04-27T07:50:12;5.65;;;2.25;;
38725;SDS011;24474;48.906;8.808;2023-04-27T07:52:42;6.33;;;2.30;;
38725;SDS011;24474;48.906;8.808;2023-04-27T07:55:07;4.68;;;2.03;;
38725;SDS011;24474;48.906;8.808;2023-04-27T07:57:33;5.15;;;2.10;;
38725;SDS011;24474;48.906;8.808;2023-04-27T07:59:59;6.68;;;4.00;;
38725;SDS011;24474;48.906;8.808;2023-04-27T08:02:26;16.05;;;9.10;;
38725;SDS011;24474;48.906;8.808;2023-04-27T08:04:56;7.28;;;3.17;;
38725;SDS011;24474;48.906;8.808;2023-04-27T08:07:21;6.40;;;2.58;;
38725;SDS011;24474;48.906;8.808;2023-04-27T08:09:49;5.05;;;2.58;;
38725;SDS011;24474;48.906;8.808;2023-04-27T08:12:16;4.47;;;2.40;;
38725;SDS011;24474;48.906;8.808;2023-04-27T08:14:41;5.82;;;2.50;;
38725;SDS011;24474;48.906;8.808;2023-04-27T08:17:07;7.63;;;2.60;;
38725;SDS011;24474;48.906;8.808;2023-04-27T08:19:33;6.40;;;2.50;;
38725;SDS011;24474;48.906;8.808;2023-04-27T08:21:59;6.15;;;2.60;;
38725;SDS011;24474;48.906;8.808;2023-04-27T08:24:25;7.05;;;3.17;;
38725;SDS011;24474;48.906;8.808;2023-04-27T08:26:50;5.95;;;2.85;;
38725;SDS011;24474;48.906;8.808;2023-04-27T08:29:16;7.18;;;3.60;;
38725;SDS011;24474;48.906;8.808;2023-04-27T08:31:42;6.25;;;3.03;;
38725;SDS011;24474;48.906;8.808;2023-04-27T08:34:08;5.45;;;3.08;;
38725;SDS011;24474;48.906;8.808;2023-04-27T08:36:33;8.00;;;2.88;;
38725;SDS011;24474;48.906;8.808;2023-04-27T08:38:59;7.22;;;4.28;;
38725;SDS011;24474;48.906;8.808;2023-04-27T08:41:24;10.80;;;3.90;;
38725;SDS011;24474;48.906;8.808;2023-04-27T08:43:50;11.27;;;4.03;;
38725;SDS011;24474;48.906;8.808;2023-04-27T08:46:20;5.88;;;2.72;;
38725;SDS011;24474;48.906;8.808;2023-04-27T08:48:50;17.35;;;7.70;;
38725;SDS011;24474;48.906;8.808;2023-04-27T08:51:17;6.18;;;3.17;;
38725;SDS011;24474;48.906;8.808;2023-04-27T08:53:47;7.35;;;3.53;;
38725;SDS011;24474;48.906;8.808;2023-04-27T08:56:17;9.93;;;3.55;;
38725;SDS011;24474;48.906;8.808;2023-04-27T08:58:43;8.95;;;2.40;;
38725;SDS011;24474;48.906;8.808;2023-04-27T09:01:09;7.00;;;2.80;;
38725;SDS011;24474;48.906;8.808;2023-04-27T09:03:35;6.43;;;3.05;;
38725;SDS011;24474;48.906;8.808;2023-04-27T09:06:02;4.47;;;2.50;;
38725;SDS011;24474;48.906;8.808;2023-04-27T09:08:28;7.00;;;3.30;;
38725;SDS011;24474;48.906;8.808;2023-04-27T09:11:05;6.45;;;2.90;;
38725;SDS011;24474;48.906;8.808;2023-04-27T09:13:34;8.45;;;2.85;;
38725;SDS011;24474;48.906;8.808;2023-04-27T09:16:01;7.63;;;3.15;;
38725;SDS011;24474;48.906;8.808;2023-04-27T09:18:27;8.20;;;3.33;;
38725;SDS011;24474;48.906;8.808;2023-04-27T09:20:54;9.55;;;3.70;;
38725;SDS011;24474;48.906;8.808;2023-04-27T09:25:52;6.97;;;3.17;;
38725;SDS011;24474;48.906;8.808;2023-04-27T09:28:20;6.68;;;2.70;;
38725;SDS011;24474;48.906;8.808;2023-04-27T09:30:53;7.45;;;3.13;;
38725;SDS011;24474;48.906;8.808;2023-04-27T09:33:23;7.32;;;3.10;;
38725;SDS011;24474;48.906;8.808;2023-04-27T09:35:50;7.05;;;3.63;;
38725;SDS011;24474;48.906;8.808;2023-04-27T09:38:17;11.85;;;4.10;;
38725;SDS011;24474;48.906;8.808;2023-04-27T09:40:44;7.78;;;3.80;;
38725;SDS011;24474;48.906;8.808;2023-04-27T09:43:10;9.48;;;3.75;;
38725;SDS011;24474;48.906;8.808;2023-04-27T09:45:36;7.68;;;3.42;;
38725;SDS011;24474;48.906;8.808;2023-04-27T09:48:03;7.45;;;3.58;;
38725;SDS011;24474;48.906;8.808;2023-04-27T09:50:30;9.18;;;4.18;;
38725;SDS011;24474;48.906;8.808;2023-04-27T09:52:59;7.70;;;3.30;;
38725;SDS011;24474;48.906;8.808;2023-04-27T09:55:26;7.68;;;4.28;;
38725;SDS011;24474;48.906;8.808;2023-04-27T10:06:01;9.30;;;3.75;;
38725;SDS011;24474;48.906;8.808;2023-04-27T10:08:34;7.45;;;3.50;;
38725;SDS011;24474;48.906;8.808;2023-04-27T10:11:11;10.85;;;3.30;;
38725;SDS011;24474;48.906;8.808;2023-04-27T10:13:38;7.90;;;3.20;;
38725;SDS011;24474;48.906;8.808;2023-04-27T10:16:37;6.78;;;3.22;;
38725;SDS011;24474;48.906;8.808;2023-04-27T10:19:07;4.60;;;3.17;;
38725;SDS011;24474;48.906;8.808;2023-04-27T10:21:33;6.63;;;2.88;;
38725;SDS011;24474;48.906;8.808;2023-04-27T10:24:05;7.28;;;3.03;;
38725;SDS011;24474;48.906;8.808;2023-04-27T10:26:35;6.40;;;3.13;;
38725;SDS011;24474;48.906;8.808;2023-04-27T10:29:09;7.32;;;3.60;;
38725;SDS011;24474;48.906;8.808;2023-04-27T10:31:41;6.40;;;3.17;;
38725;SDS011;24474;48.906;8.808;2023-04-27T10:34:10;8.70;;;3.10;;
38725;SDS011;24474;48.906;8.808;2023-04-27T10:36:39;5.95;;;2.78;;
38725;SDS011;24474;48.906;8.808;2023-04-27T10:39:16;6.85;;;2.83;;
38725;SDS011;24474;48.906;8.808;2023-04-27T10:41:49;6.82;;;3.00;;
38725;SDS011;24474;48.906;8.808;2023-04-27T10:44:23;7.85;;;2.95;;
38725;SDS011;24474;48.906;8.808;2023-04-27T10:46:52;5.55;;;2.97;;
38725;SDS011;24474;48.906;8.808;2023-04-27T10:49:20;5.10;;;3.00;;
38725;SDS011;24474;48.906;8.808;2023-04-27T10:51:47;6.90;;;2.60;;
38725;SDS011;24474;48.906;8.808;2023-04-27T10:54:14;6.20;;;2.70;;
38725;SDS011;24474;48.906;8.808;2023-04-27T10:56:40;11.23;;;3.53;;
38725;SDS011;24474;48.906;8.808;2023-04-27T10:59:06;6.80;;;3.40;;
38725;SDS011;24474;48.906;8.808;2023-04-27T11:01:32;5.45;;;3.00;;
38725;SDS011;24474;48.906;8.808;2023-04-27T11:03:59;5.68;;;3.20;;
38725;SDS011;24474;48.906;8.808;2023-04-27T11:06:25;7.88;;;3.85;;
38725;SDS011;24474;48.906;8.808;2023-04-27T11:08:52;6.70;;;3.47;;
38725;SDS011;24474;48.906;8.808;2023-04-27T11:11:19;6.35;;;3.13;;
38725;SDS011;24474;48.906;8.808;2023-04-27T11:13:46;10.15;;;3.35;;
38725;SDS011;24474;48.906;8.808;2023-04-27T11:16:13;9.38;;;3.50;;
38725;SDS011;24474;48.906;8.808;2023-04-27T11:18:40;8.40;;;3.30;;
38725;SDS011;24474;48.906;8.808;2023-04-27T11:23:36;6.68;;;3.17;;
38725;SDS011;24474;48.906;8.808;2023-04-27T11:26:13;4.55;;;2.78;;
38725;SDS011;24474;48.906;8.808;2023-04-27T11:28:39;7.85;;;3.38;;
38725;SDS011;24474;48.906;8.808;2023-04-27T11:31:05;6.82;;;3.33;;
38725;SDS011;24474;48.906;8.808;2023-04-27T11:33:31;8.35;;;3.50;;
38725;SDS011;24474;48.906;8.808;2023-04-27T11:35:57;9.27;;;3.17;;
38725;SDS011;24474;48.906;8.808;2023-04-27T11:38:24;6.25;;;3.17;;
38725;SDS011;24474;48.906;8.808;2023-04-27T11:40:58;6.53;;;3.00;;
38725;SDS011;24474;48.906;8.808;2023-04-27T11:43:33;6.38;;;3.15;;
38725;SDS011;24474;48.906;8.808;2023-04-27T11:46:02;6.25;;;3.00;;
38725;SDS011;24474;48.906;8.808;2023-04-27T11:48:29;6.72;;;3.03;;
38725;SDS011;24474;48.906;8.808;2023-04-27T11:50:56;6.20;;;3.08;;
38725;SDS011;24474;48.906;8.808;2023-04-27T11:53:37;6.40;;;3.10;;
38725;SDS011;24474;48.906;8.808;2023-04-27T11:56:04;8.13;;;3.10;;
38725;SDS011;24474;48.906;8.808;2023-04-27T11:58:35;8.68;;;3.33;;
38725;SDS011;24474;48.906;8.808;2023-04-27T12:01:05;5.50;;;2.90;;
38725;SDS011;24474;48.906;8.808;2023-04-27T12:03:32;5.10;;;2.92;;
38725;SDS011;24474;48.906;8.808;2023-04-27T12:05:57;7.95;;;3.03;;
38725;SDS011;24474;48.906;8.808;2023-04-27T12:08:23;7.35;;;3.42;;
38725;SDS011;24474;48.906;8.808;2023-04-27T12:10:50;5.32;;;2.95;;
38725;SDS011;24474;48.906;8.808;2023-04-27T12:13:15;5.32;;;2.97;;
38725;SDS011;24474;48.906;8.808;2023-04-27T12:15:44;6.75;;;3.05;;
38725;SDS011;24474;48.906;8.808;2023-04-27T12:18:10;8.13;;;2.97;;
38725;SDS011;24474;48.906;8.808;2023-04-27T12:20:36;6.65;;;2.83;;
38725;SDS011;24474;48.906;8.808;2023-04-27T12:23:01;7.72;;;3.10;;
38725;SDS011;24474;48.906;8.808;2023-04-27T12:25:27;6.75;;;2.60;;
38725;SDS011;24474;48.906;8.808;2023-04-27T12:27:53;6.30;;;2.72;;
38725;SDS011;24474;48.906;8.808;2023-04-27T12:30:19;8.07;;;2.38;;
38725;SDS011;24474;48.906;8.808;2023-04-27T12:32:46;10.85;;;2.85;;
38725;SDS011;24474;48.906;8.808;2023-04-27T12:35:12;6.35;;;2.55;;
38725;SDS011;24474;48.906;8.808;2023-04-27T12:37:38;8.48;;;2.70;;
38725;SDS011;24474;48.906;8.808;2023-04-27T12:40:03;5.03;;;2.33;;
38725;SDS011;24474;48.906;8.808;2023-04-27T12:42:33;4.47;;;2.08;;
38725;SDS011;24474;48.906;8.808;2023-04-27T12:44:59;5.55;;;2.40;;
38725;SDS011;24474;48.906;8.808;2023-04-27T12:47:26;4.00;;;2.55;;
38725;SDS011;24474;48.906;8.808;2023-04-27T12:49:52;6.38;;;2.45;;
38725;SDS011;24474;48.906;8.808;2023-04-27T12:52:17;4.93;;;2.47;;
38725;SDS011;24474;48.906;8.808;2023-04-27T12:54:43;4.93;;;2.20;;
38725;SDS011;24474;48.906;8.808;2023-04-27T12:57:10;5.43;;;2.70;;
38725;SDS011;24474;48.906;8.808;2023-04-27T12:59:36;7.47;;;2.50;;
38725;SDS011;24474;48.906;8.808;2023-04-27T13:02:02;4.47;;;2.38;;
38725;SDS011;24474;48.906;8.808;2023-04-27T13:04:28;4.13;;;2.00;;
38725;SDS011;24474;48.906;8.808;2023-04-27T13:06:55;5.85;;;2.13;;
38725;SDS011;24474;48.906;8.808;2023-04-27T13:09:25;4.38;;;2.03;;
38725;SDS011;24474;48.906;8.808;2023-04-27T13:11:51;5.47;;;2.38;;
38725;SDS011;24474;48.906;8.808;2023-04-27T13:14:18;4.40;;;2.60;;
38725;SDS011;24474;48.906;8.808;2023-04-27T13:16:44;6.10;;;2.40;;
38725;SDS011;24474;48.906;8.808;2023-04-27T13:19:10;7.25;;;2.55;;
38725;SDS011;24474;48.906;8.808;2023-04-27T13:21:36;4.60;;;2.15;;
38725;SDS011;24474;48.906;8.808;2023-04-27T13:24:02;6.05;;;2.20;;
38725;SDS011;24474;48.906;8.808;2023-04-27T13:26:27;6.00;;;2.03;;
38725;SDS011;24474;48.906;8.808;2023-04-27T13:28:53;6.88;;;2.47;;
38725;SDS011;24474;48.906;8.808;2023-04-27T13:31:19;5.80;;;2.47;;
38725;SDS011;24474;48.906;8.808;2023-04-27T13:33:45;8.05;;;2.60;;
38725;SDS011;24474;48.906;8.808;2023-04-27T13:36:12;4.03;;;2.10;;
38725;SDS011;24474;48.906;8.808;2023-04-27T13:38:39;4.47;;;2.28;;
38725;SDS011;24474;48.906;8.808;2023-04-27T13:41:05;7.13;;;2.28;;
38725;SDS011;24474;48.906;8.808;2023-04-27T13:43:32;6.88;;;2.70;;
38725;SDS011;24474;48.906;8.808;2023-04-27T13:45:57;6.45;;;2.38;;
38725;SDS011;24474;48.906;8.808;2023-04-27T13:48:24;5.85;;;2.50;;
38725;SDS011;24474;48.906;8.808;2023-04-27T13:50:50;7.50;;;2.47;;
38725;SDS011;24474;48.906;8.808;2023-04-27T13:53:16;6.18;;;2.70;;
38725;SDS011;24474;48.906;8.808;2023-04-27T13:55:42;4.68;;;2.30;;
38725;SDS011;24474;48.906;8.808;2023-04-27T13:58:08;4.53;;;2.10;;
38725;SDS011;24474;48.906;8.808;2023-04-27T14:00:35;6.38;;;2.72;;
38725;SDS011;24474;48.906;8.808;2023-04-27T14:03:01;5.13;;;2.30;;
38725;SDS011;24474;48.906;8.808;2023-04-27T14:05:30;5.35;;;2.50;;
38725;SDS011;24474;48.906;8.808;2023-04-27T14:07:56;6.45;;;2.50;;
38725;SDS011;24474;48.906;8.808;2023-04-27T14:10:22;4.65;;;2.25;;
38725;SDS011;24474;48.906;8.808;2023-04-27T14:12:48;5.35;;;2.40;;
38725;SDS011;24474;48.906;8.808;2023-04-27T14:15:16;5.32;;;2.60;;
38725;SDS011;24474;48.906;8.808;2023-04-27T14:17:42;3.42;;;2.03;;
38725;SDS011;24474;48.906;8.808;2023-04-27T14:20:07;3.03;;;1.90;;
38725;SDS011;24474;48.906;8.808;2023-04-27T14:22:34;5.25;;;2.13;;
38725;SDS011;24474;48.906;8.808;2023-04-27T14:25:02;4.47;;;1.98;;
38725;SDS011;24474;48.906;8.808;2023-04-27T14:27:27;4.47;;;1.90;;
38725;SDS011;24474;48.906;8.808;2023-04-27T14:29:54;4.03;;;1.92;;
38725;SDS011;24474;48.906;8.808;2023-04-27T14:32:22;5.60;;;1.95;;
38725;SDS011;24474;48.906;8.808;2023-04-27T14:34:48;6.43;;;2.42;;
38725;SDS011;24474;48.906;8.808;2023-04-27T14:37:14;4.60;;;2.20;;
38725;SDS011;24474;48.906;8.808;2023-04-27T14:39:40;4.95;;;2.05;;
38725;SDS011;24474;48.906;8.808;2023-04-27T14:42:05;7.63;;;2.28;;
38725;SDS011;24474;48.906;8.808;2023-04-27T14:44:31;5.05;;;2.20;;
38725;SDS011;24474;48.906;8.808;2023-04-27T14:46:56;3.63;;;2.15;;
38725;SDS011;24474;48.906;8.808;2023-04-27T14:49:22;4.22;;;1.90;;
38725;SDS011;24474;48.906;8.808;2023-04-27T14:51:48;5.88;;;2.08;;
38725;SDS011;24474;48.906;8.808;2023-04-27T14:54:14;4.53;;;2.33;;
38725;SDS011;24474;48.906;8.808;2023-04-27T14:56:40;5.05;;;2.00;;